Terminal Aerodrome Forecast
Issued by NWS

Home | Current Version | Previous Version | Text Only | Print | Product List | Glossary On
Versions: 1 2 3 4 5 6 7 8 9 10 11 12
000
FTUS46 KSGX 180500
TAFPSP
TAF
KPSP 180520Z 1806/1906 33007KT P6SM BKN200
     FM181500 13006KT P6SM BKN150
     FM190100 33012KT P6SM SCT150=

USA.gov is the U.S. government's official web portal to all federal, state and local government web resources and services.